createdAt,value
2023-03-19T00:00:32.381Z,41.28
2023-03-19T00:03:00.669Z,33.53
2023-03-19T00:05:28.899Z,32.75
2023-03-19T00:07:56.886Z,34.92
2023-03-19T00:10:27.071Z,32.97
2023-03-19T00:12:55.088Z,26.92
2023-03-19T00:15:23.047Z,26.48
2023-03-19T00:17:51.606Z,30.05
2023-03-19T00:20:20.426Z,30.52
2023-03-19T00:22:48.475Z,31.65
2023-03-19T00:25:16.547Z,31.38
2023-03-19T00:27:46.371Z,30.42
2023-03-19T00:30:15.013Z,33.40
2023-03-19T00:32:43.133Z,29.75
2023-03-19T00:35:11.865Z,30.08
2023-03-19T00:37:40.112Z,30.08
2023-03-19T00:40:10.277Z,31.13
2023-03-19T00:42:38.294Z,31.80
2023-03-19T00:45:09.122Z,29.80
2023-03-19T00:47:37.161Z,29.98
2023-03-19T00:50:06.472Z,28.52
2023-03-19T00:52:34.463Z,28.17
2023-03-19T00:55:02.505Z,28.55
2023-03-19T00:57:30.523Z,29.67
2023-03-19T00:59:58.508Z,29.05
2023-03-19T01:02:28.109Z,25.02
2023-03-19T01:04:56.159Z,31.15
2023-03-19T01:07:24.165Z,27.58
2023-03-19T01:09:52.133Z,26.00
2023-03-19T01:12:20.425Z,32.92
2023-03-19T01:14:48.543Z,27.95
2023-03-19T01:17:16.600Z,31.27
2023-03-19T01:19:46.022Z,31.98
2023-03-19T01:22:16.207Z,35.35
2023-03-19T01:24:44.270Z,34.53
2023-03-19T01:27:12.590Z,36.55
2023-03-19T01:29:40.781Z,31.15
2023-03-19T01:32:08.894Z,35.30
2023-03-19T01:34:37.127Z,31.38
2023-03-19T01:37:06.555Z,32.17
2023-03-19T01:39:34.739Z,34.35
2023-03-19T01:42:03.785Z,33.88
2023-03-19T01:44:34.049Z,33.63
2023-03-19T01:47:05.809Z,34.20
2023-03-19T01:49:34.171Z,31.25
2023-03-19T01:52:06.074Z,30.02
2023-03-19T01:54:36.583Z,31.55
2023-03-19T01:57:08.457Z,33.92
2023-03-19T01:59:40.568Z,35.45
2023-03-19T02:02:14.419Z,34.13
2023-03-19T02:04:46.063Z,35.28
2023-03-19T02:07:15.760Z,31.10
2023-03-19T02:09:45.386Z,37.92
2023-03-19T02:12:14.084Z,37.05
2023-03-19T02:14:42.145Z,37.38
2023-03-19T02:17:10.332Z,36.92
2023-03-19T02:19:47.121Z,38.40
2023-03-19T02:22:17.713Z,36.78
2023-03-19T02:24:53.914Z,33.42
2023-03-19T02:27:23.760Z,42.85
2023-03-19T02:29:52.055Z,46.25
2023-03-19T02:32:20.142Z,45.15
2023-03-19T02:34:49.161Z,29.05
2023-03-19T02:37:20.689Z,37.80
2023-03-19T02:39:55.779Z,38.30
2023-03-19T02:42:27.189Z,47.55
2023-03-19T02:44:55.213Z,46.85
2023-03-19T02:47:23.576Z,50.17
2023-03-19T02:49:51.685Z,43.55
2023-03-19T02:52:19.963Z,48.97
2023-03-19T02:54:48.492Z,58.15
2023-03-19T02:57:16.526Z,42.70
2023-03-19T02:59:46.358Z,34.78
2023-03-19T03:02:15.285Z,41.58
2023-03-19T03:04:43.397Z,46.25
2023-03-19T03:07:11.624Z,49.83
2023-03-19T03:09:39.676Z,45.97
2023-03-19T03:12:08.388Z,50.63
2023-03-19T03:14:36.533Z,49.22
2023-03-19T03:17:06.049Z,45.78
2023-03-19T03:19:34.196Z,51.50
2023-03-19T03:22:02.234Z,46.22
2023-03-19T03:24:30.300Z,46.25
2023-03-19T03:26:58.273Z,42.53
2023-03-19T03:29:26.417Z,35.22
2023-03-19T03:31:54.465Z,40.10
2023-03-19T03:34:23.796Z,36.33
2023-03-19T03:36:52.122Z,42.83
2023-03-19T03:39:20.164Z,43.58
2023-03-19T03:41:48.106Z,39.72
2023-03-19T03:44:16.365Z,40.95
2023-03-19T03:46:44.773Z,44.47
2023-03-19T03:49:13.268Z,44.85
2023-03-19T03:51:42.625Z,47.65
2023-03-19T03:54:10.613Z,46.63
2023-03-19T03:56:38.597Z,45.95
2023-03-19T03:59:07.466Z,49.13
2023-03-19T04:01:35.532Z,49.70
2023-03-19T04:04:03.756Z,47.67
2023-03-19T04:06:31.904Z,46.20
2023-03-19T04:09:02.391Z,43.90
2023-03-19T04:11:30.648Z,42.90
2023-03-19T04:13:58.740Z,43.05
2023-03-19T04:16:28.710Z,46.45
2023-03-19T04:18:56.789Z,45.88
2023-03-19T04:21:24.801Z,45.63
2023-03-19T04:23:52.764Z,48.65
2023-03-19T04:26:22.193Z,47.58
2023-03-19T04:28:50.192Z,48.90
2023-03-19T04:31:18.242Z,48.63
2023-03-19T04:33:46.656Z,51.28
2023-03-19T04:36:14.726Z,44.38
2023-03-19T04:38:42.720Z,45.55
2023-03-19T04:41:10.920Z,47.83
2023-03-19T04:43:40.304Z,50.00
2023-03-19T04:46:08.525Z,51.35
2023-03-19T04:48:39.438Z,49.25
2023-03-19T04:51:09.271Z,50.75
2023-03-19T04:53:37.807Z,56.88
2023-03-19T04:56:06.989Z,49.97
2023-03-19T04:58:35.051Z,53.38
2023-03-19T05:01:04.592Z,54.17
2023-03-19T05:03:32.623Z,49.90
2023-03-19T05:06:00.697Z,54.17
2023-03-19T05:08:28.950Z,48.45
2023-03-19T05:10:57.168Z,48.92
2023-03-19T05:13:25.125Z,43.63
2023-03-19T05:15:55.092Z,48.60
2023-03-19T05:18:24.611Z,42.17
2023-03-19T05:20:53.398Z,46.97
2023-03-19T05:23:21.568Z,41.22
2023-03-19T05:25:49.698Z,52.28
2023-03-19T05:28:18.182Z,47.22
2023-03-19T05:30:46.689Z,51.92
2023-03-19T05:33:14.876Z,53.03
2023-03-19T05:35:44.670Z,55.90
2023-03-19T05:38:13.139Z,56.17
2023-03-19T05:40:42.021Z,59.00
2023-03-19T05:43:10.523Z,49.92
2023-03-19T05:45:39.161Z,55.83
2023-03-19T05:48:09.076Z,54.70
2023-03-19T05:50:37.180Z,45.92
2023-03-19T05:53:06.674Z,56.25
2023-03-19T05:55:34.702Z,59.58
2023-03-19T05:58:02.752Z,59.55
2023-03-19T06:00:30.919Z,61.90
2023-03-19T06:02:59.000Z,63.13
2023-03-19T06:05:27.131Z,60.75
2023-03-19T06:07:55.448Z,60.78
2023-03-19T06:10:24.831Z,64.70
2023-03-19T06:12:52.914Z,68.05
2023-03-19T06:15:21.151Z,65.07
2023-03-19T06:17:49.344Z,55.30
2023-03-19T06:20:17.789Z,59.53
2023-03-19T06:22:46.060Z,62.95
2023-03-19T06:25:14.133Z,57.20
2023-03-19T06:27:43.718Z,61.92
2023-03-19T06:30:13.145Z,67.15
2023-03-19T06:32:41.810Z,66.57
2023-03-19T06:35:10.919Z,69.22
2023-03-19T06:37:38.977Z,71.03
2023-03-19T06:40:08.001Z,70.00
2023-03-19T06:42:36.528Z,76.13
2023-03-19T06:45:07.633Z,63.00
2023-03-19T06:47:35.729Z,63.25
2023-03-19T06:50:04.521Z,63.95
2023-03-19T06:52:32.627Z,71.15
2023-03-19T06:55:00.743Z,66.72
2023-03-19T06:57:28.931Z,69.40
2023-03-19T06:59:57.034Z,69.75
2023-03-19T07:02:26.749Z,67.43
2023-03-19T07:04:54.846Z,62.35
2023-03-19T07:07:22.935Z,54.28
2023-03-19T07:09:51.346Z,60.38
2023-03-19T07:12:19.368Z,60.47
2023-03-19T07:14:47.404Z,59.88
2023-03-19T07:17:15.779Z,53.28
2023-03-19T07:19:45.477Z,54.70
2023-03-19T07:22:13.518Z,46.70
2023-03-19T07:24:41.571Z,52.25
2023-03-19T07:27:10.109Z,50.58
2023-03-19T07:29:38.234Z,50.20
2023-03-19T07:32:06.972Z,55.45
2023-03-19T07:34:35.652Z,53.42
2023-03-19T07:37:05.165Z,50.40
2023-03-19T07:39:33.393Z,55.20
2023-03-19T07:42:01.458Z,53.72
2023-03-19T07:44:29.416Z,53.20
2023-03-19T07:46:57.442Z,54.22
2023-03-19T07:49:25.802Z,53.10
2023-03-19T07:51:53.881Z,50.42
2023-03-19T07:54:23.679Z,52.67
2023-03-19T07:56:51.740Z,50.13
2023-03-19T07:59:19.867Z,54.28
2023-03-19T08:01:47.910Z,54.75
2023-03-19T08:04:16.664Z,57.40
2023-03-19T08:06:44.772Z,56.38
2023-03-19T08:09:13.316Z,54.55
2023-03-19T08:11:42.695Z,58.35
2023-03-19T08:14:10.899Z,66.95
2023-03-19T08:16:39.254Z,59.70
2023-03-19T08:19:07.254Z,64.78
2023-03-19T08:21:35.241Z,60.58
2023-03-19T08:24:05.004Z,58.90
2023-03-19T08:26:33.448Z,50.30
2023-03-19T08:29:04.102Z,56.10
2023-03-19T08:31:32.504Z,50.10
2023-03-19T08:34:03.143Z,55.10
2023-03-19T08:36:31.257Z,48.85
2023-03-19T08:38:59.630Z,49.20
2023-03-19T08:41:27.648Z,53.83
2023-03-19T08:43:55.680Z,47.78
2023-03-19T08:46:25.501Z,48.40
2023-03-19T08:48:53.553Z,45.17
2023-03-19T08:51:21.592Z,46.97
2023-03-19T08:53:49.585Z,48.45
2023-03-19T08:56:17.551Z,50.60
2023-03-19T08:58:45.563Z,51.08
2023-03-19T09:01:14.708Z,51.22
2023-03-19T09:03:45.333Z,46.55
2023-03-19T09:06:15.535Z,45.00
2023-03-19T09:08:44.240Z,41.95
2023-03-19T09:11:14.368Z,42.58
2023-03-19T09:13:42.463Z,39.97
2023-03-19T09:16:11.029Z,40.38
2023-03-19T09:18:39.104Z,40.22
2023-03-19T09:21:08.641Z,38.97
2023-03-19T09:23:36.759Z,33.30
2023-03-19T09:26:05.049Z,33.30
2023-03-19T09:28:33.196Z,34.28
2023-03-19T09:31:06.947Z,31.30
2023-03-19T09:33:35.333Z,32.25
2023-03-19T09:36:03.622Z,32.50
2023-03-19T09:38:33.598Z,32.85
2023-03-19T09:41:11.316Z,33.47
2023-03-19T09:44:02.203Z,32.17
2023-03-19T09:46:43.243Z,30.70
2023-03-19T09:49:18.001Z,32.75
2023-03-19T09:51:49.630Z,33.35
2023-03-19T09:54:28.859Z,31.38
2023-03-19T09:56:57.356Z,32.45
2023-03-19T09:59:28.288Z,35.20
2023-03-19T10:02:06.486Z,35.75
2023-03-19T10:04:43.180Z,35.70
2023-03-19T10:07:24.034Z,38.08
2023-03-19T10:10:16.229Z,36.63
2023-03-19T10:12:58.131Z,36.67
2023-03-19T10:15:30.479Z,32.70
2023-03-19T10:20:44.543Z,34.25
2023-03-19T10:23:36.613Z,35.22
2023-03-19T10:26:10.544Z,34.67
2023-03-19T10:28:39.991Z,37.05
2023-03-19T10:31:29.494Z,40.13
2023-03-19T10:34:13.273Z,40.67
2023-03-19T10:36:41.636Z,41.20
2023-03-19T10:39:09.905Z,39.92
2023-03-19T10:41:51.323Z,38.45
2023-03-19T10:44:30.698Z,31.50
2023-03-19T10:47:00.268Z,32.75
2023-03-19T10:49:28.388Z,36.22
2023-03-19T10:51:59.507Z,34.53
2023-03-19T10:54:31.479Z,33.00
2023-03-19T10:57:02.252Z,34.47
2023-03-19T10:59:37.436Z,35.60
2023-03-19T11:02:18.278Z,32.63
2023-03-19T11:04:46.787Z,32.80
2023-03-19T11:07:19.281Z,32.25
2023-03-19T11:09:49.449Z,31.38
2023-03-19T11:12:23.086Z,32.83
2023-03-19T11:14:53.636Z,32.67
2023-03-19T11:17:24.588Z,26.85
2023-03-19T11:19:55.103Z,30.60
2023-03-19T11:22:25.564Z,32.53
2023-03-19T11:24:55.772Z,32.58
2023-03-19T11:27:34.787Z,32.90
2023-03-19T11:30:03.977Z,33.60
2023-03-19T11:32:57.832Z,34.75
2023-03-19T11:35:29.591Z,34.08
2023-03-19T11:38:00.686Z,33.28
2023-03-19T11:40:37.458Z,32.38
2023-03-19T11:43:29.365Z,33.78
2023-03-19T11:46:06.491Z,32.83
2023-03-19T11:48:57.530Z,34.05
2023-03-19T11:51:31.989Z,33.92
2023-03-19T11:54:07.757Z,33.92
2023-03-19T11:56:44.062Z,33.35
2023-03-19T11:59:36.842Z,35.50
2023-03-19T12:02:34.992Z,37.65
2023-03-19T12:05:22.246Z,34.97
2023-03-19T12:08:05.744Z,34.20
2023-03-19T12:10:44.120Z,34.45
2023-03-19T12:13:25.027Z,35.25
2023-03-19T12:16:01.751Z,32.78
2023-03-19T12:18:48.420Z,33.85
2023-03-19T12:21:24.353Z,32.90
2023-03-19T12:24:04.003Z,33.50
2023-03-19T12:26:42.762Z,35.25
2023-03-19T12:29:22.225Z,33.42
2023-03-19T12:32:17.977Z,31.17
2023-03-19T12:34:51.106Z,28.90
2023-03-19T12:37:25.191Z,28.42
2023-03-19T12:40:04.738Z,27.45
2023-03-19T12:42:38.785Z,22.77
2023-03-19T12:45:20.972Z,22.70
2023-03-19T12:47:52.464Z,23.48
2023-03-19T12:50:21.567Z,20.57
2023-03-19T12:52:52.843Z,22.05
2023-03-19T12:55:24.027Z,20.60
2023-03-19T12:57:55.793Z,19.33
2023-03-19T13:00:29.668Z,23.25
2023-03-19T13:03:07.530Z,20.60
2023-03-19T13:05:41.718Z,20.33
2023-03-19T13:08:17.902Z,20.88
2023-03-19T13:10:46.141Z,18.65
2023-03-19T13:13:29.782Z,19.92
2023-03-19T13:16:02.747Z,18.20
2023-03-19T13:18:40.437Z,18.10
2023-03-19T13:21:21.579Z,17.27
2023-03-19T13:23:53.308Z,15.98
2023-03-19T13:26:21.473Z,15.13
2023-03-19T13:29:01.581Z,14.88
2023-03-19T13:31:34.941Z,15.73
2023-03-19T13:34:07.680Z,15.13
2023-03-19T13:36:39.445Z,15.07
2023-03-19T13:39:15.755Z,15.35
2023-03-19T13:41:53.577Z,16.27
2023-03-19T13:44:36.996Z,16.75
2023-03-19T13:47:38.479Z,17.33
2023-03-19T13:50:31.660Z,16.77
2023-03-19T13:53:24.480Z,17.10
2023-03-19T13:55:55.944Z,16.40
2023-03-19T13:58:44.395Z,15.33
2023-03-19T14:01:33.784Z,15.75
2023-03-19T14:04:03.299Z,16.67
2023-03-19T14:06:37.225Z,16.73
2023-03-19T14:09:06.938Z,16.50
2023-03-19T14:11:37.787Z,13.27
2023-03-19T14:14:08.571Z,13.63
2023-03-19T14:16:39.402Z,11.50
2023-03-19T14:19:13.697Z,11.85
2023-03-19T14:21:47.436Z,10.90
2023-03-19T14:27:22.566Z,9.43
2023-03-19T14:32:22.372Z,10.65
2023-03-19T14:34:51.559Z,9.03
2023-03-19T14:37:25.118Z,9.63
2023-03-19T14:40:00.484Z,10.50
2023-03-19T14:42:33.499Z,11.05
2023-03-19T14:45:36.157Z,9.35
2023-03-19T14:48:27.013Z,9.50
2023-03-19T14:51:27.116Z,9.48
2023-03-19T14:53:59.766Z,10.05
2023-03-19T14:56:32.224Z,10.38
2023-03-19T14:59:03.840Z,11.35
2023-03-19T15:01:34.188Z,10.70
2023-03-19T15:04:04.269Z,12.52
2023-03-19T15:06:36.161Z,13.60
2023-03-19T15:09:08.193Z,12.65
2023-03-19T15:11:55.851Z,13.98
2023-03-19T15:14:45.428Z,15.25
2023-03-19T15:17:22.363Z,15.02
2023-03-19T15:19:51.226Z,13.55
2023-03-19T15:22:22.083Z,14.50
2023-03-19T15:24:51.790Z,10.35
2023-03-19T15:27:22.089Z,11.90
2023-03-19T15:29:51.758Z,11.93
2023-03-19T15:32:50.902Z,12.63
2023-03-19T15:35:24.359Z,11.90
2023-03-19T15:37:55.912Z,12.20
2023-03-19T15:40:30.215Z,13.10
2023-03-19T15:43:01.423Z,15.07
2023-03-19T15:45:31.375Z,13.27
2023-03-19T15:48:04.738Z,14.82
2023-03-19T15:50:36.944Z,15.95
2023-03-19T15:55:38.157Z,16.35
2023-03-19T15:58:09.756Z,17.48
2023-03-19T16:00:41.119Z,21.50
2023-03-19T16:03:17.360Z,20.50
2023-03-19T16:05:45.887Z,18.73
2023-03-19T16:08:20.977Z,23.40
2023-03-19T16:10:50.678Z,22.92
2023-03-19T16:13:31.775Z,90.55
2023-03-19T16:16:06.669Z,18.27
2023-03-19T16:18:45.626Z,20.70
2023-03-19T16:21:17.634Z,18.98
2023-03-19T16:23:50.970Z,19.80
2023-03-19T16:26:24.673Z,21.27
2023-03-19T16:29:00.152Z,22.08
2023-03-19T16:31:32.040Z,19.83
2023-03-19T16:34:00.638Z,20.02
2023-03-19T16:36:33.727Z,26.35
2023-03-19T16:39:24.432Z,24.05
2023-03-19T16:42:17.479Z,23.27
2023-03-19T16:44:48.354Z,22.20
2023-03-19T16:47:17.073Z,21.17
2023-03-19T16:49:46.963Z,21.00
2023-03-19T16:52:17.894Z,22.15
2023-03-19T16:54:46.461Z,20.98
2023-03-19T16:57:18.202Z,20.35
2023-03-19T16:59:47.624Z,19.95
2023-03-19T17:02:17.519Z,15.38
2023-03-19T17:04:46.287Z,16.63
2023-03-19T17:07:14.649Z,14.90
2023-03-19T17:09:42.885Z,13.82
2023-03-19T17:12:17.775Z,25.13
2023-03-19T17:14:46.091Z,21.08
2023-03-19T17:17:19.593Z,33.10
2023-03-19T17:19:48.048Z,25.42
2023-03-19T17:22:16.235Z,12.30
2023-03-19T17:24:44.565Z,10.68
2023-03-19T17:27:12.785Z,10.32
2023-03-19T17:29:42.121Z,14.13
2023-03-19T17:32:18.724Z,19.75
2023-03-19T17:34:47.261Z,12.05
2023-03-19T17:37:15.764Z,12.75
2023-03-19T17:39:45.781Z,14.65
2023-03-19T17:42:19.313Z,14.80
2023-03-19T17:44:48.706Z,19.90
2023-03-19T17:47:18.446Z,15.68
2023-03-19T17:49:47.305Z,11.35
2023-03-19T17:52:16.810Z,15.43
2023-03-19T17:54:44.929Z,18.20
2023-03-19T17:57:15.496Z,12.27
2023-03-19T17:59:43.900Z,10.88
2023-03-19T18:02:25.588Z,19.05
2023-03-19T18:04:53.652Z,14.13
2023-03-19T18:07:21.710Z,17.05
2023-03-19T18:09:49.806Z,18.10
2023-03-19T18:12:20.389Z,15.68
2023-03-19T18:14:48.399Z,23.98
2023-03-19T18:17:18.920Z,77.68
2023-03-19T18:19:50.777Z,28.83
2023-03-19T18:22:20.237Z,21.77
2023-03-19T18:24:48.232Z,14.30
2023-03-19T18:27:16.297Z,24.80
2023-03-19T18:29:44.323Z,14.02
2023-03-19T18:32:16.076Z,15.05
2023-03-19T18:34:45.529Z,44.72
2023-03-19T18:37:18.020Z,24.83
2023-03-19T18:39:46.276Z,17.25
2023-03-19T18:42:15.259Z,17.75
2023-03-19T18:44:43.535Z,11.98
2023-03-19T18:47:15.388Z,14.60
2023-03-19T18:49:45.952Z,9.50
2023-03-19T18:52:19.318Z,24.95
2023-03-19T18:54:47.939Z,14.30
2023-03-19T18:57:16.776Z,15.25
2023-03-19T18:59:44.899Z,12.57
2023-03-19T19:02:26.833Z,21.85
2023-03-19T19:04:56.221Z,18.08
2023-03-19T19:07:24.251Z,13.90
2023-03-19T19:09:52.244Z,22.50
2023-03-19T19:12:20.569Z,15.10
2023-03-19T19:14:48.650Z,11.30
2023-03-19T19:17:18.418Z,14.73
2023-03-19T19:19:46.614Z,10.00
2023-03-19T19:22:17.777Z,10.10
2023-03-19T19:24:46.131Z,18.27
2023-03-19T19:27:19.231Z,13.55
2023-03-19T19:29:47.910Z,11.35
2023-03-19T19:32:20.724Z,14.07
2023-03-19T19:34:48.729Z,15.57
2023-03-19T19:37:19.391Z,15.88
2023-03-19T19:39:47.340Z,16.30
2023-03-19T19:42:16.855Z,14.65
2023-03-19T19:44:49.738Z,14.93
2023-03-19T19:47:18.567Z,13.38
2023-03-19T19:49:46.608Z,14.50
2023-03-19T19:52:17.133Z,14.13
2023-03-19T19:54:46.766Z,13.18
2023-03-19T19:57:22.778Z,13.32
2023-03-19T19:59:52.022Z,14.27
2023-03-19T20:02:21.639Z,12.88
2023-03-19T20:04:50.225Z,11.90
2023-03-19T20:07:18.328Z,12.85
2023-03-19T20:09:47.995Z,14.60
2023-03-19T20:12:20.561Z,14.57
2023-03-19T20:14:49.108Z,18.15
2023-03-19T20:17:18.002Z,15.57
2023-03-19T20:19:46.447Z,17.00
2023-03-19T20:22:14.474Z,13.02
2023-03-19T20:24:42.752Z,14.38
2023-03-19T20:27:19.374Z,13.68
2023-03-19T20:29:47.419Z,17.10
2023-03-19T20:32:27.990Z,14.10
2023-03-19T20:34:56.030Z,12.73
2023-03-19T20:37:24.023Z,15.18
2023-03-19T20:39:52.024Z,12.63
2023-03-19T20:42:21.537Z,14.40
2023-03-19T20:44:50.513Z,12.85
2023-03-19T20:47:20.558Z,10.82
2023-03-19T20:49:48.994Z,12.75
2023-03-19T20:52:17.168Z,11.50
2023-03-19T20:54:45.710Z,13.40
2023-03-19T20:57:15.533Z,12.98
2023-03-19T20:59:46.899Z,12.02
2023-03-19T21:02:17.094Z,13.82
2023-03-19T21:04:45.630Z,14.43
2023-03-19T21:07:28.613Z,15.65
2023-03-19T21:09:57.070Z,17.65
2023-03-19T21:12:29.327Z,17.80
2023-03-19T21:14:59.423Z,15.40
2023-03-19T21:17:28.797Z,15.63
2023-03-19T21:19:57.342Z,16.90
2023-03-19T21:22:29.413Z,16.20
2023-03-19T21:25:03.280Z,14.63
2023-03-19T21:27:33.091Z,16.65
2023-03-19T21:30:02.757Z,16.98
2023-03-19T21:32:31.710Z,19.27
2023-03-19T21:35:00.046Z,15.95
2023-03-19T21:37:28.213Z,16.92
2023-03-19T21:39:56.391Z,17.08
2023-03-19T21:42:24.885Z,18.00
2023-03-19T21:45:00.697Z,17.40
2023-03-19T21:47:30.044Z,15.73
2023-03-19T21:50:00.492Z,18.73
2023-03-19T21:52:57.580Z,20.35
2023-03-19T21:55:27.840Z,19.02
2023-03-19T21:57:58.711Z,16.08
2023-03-19T22:00:27.260Z,15.10
2023-03-19T22:02:58.010Z,15.05
2023-03-19T22:05:27.373Z,16.45
2023-03-19T22:07:56.153Z,16.80
2023-03-19T22:10:28.149Z,16.50
2023-03-19T22:12:56.280Z,17.27
2023-03-19T22:15:30.753Z,15.60
2023-03-19T22:18:00.274Z,15.57
2023-03-19T22:20:28.604Z,12.85
2023-03-19T22:22:57.578Z,15.60
2023-03-19T22:25:33.016Z,14.65
2023-03-19T22:28:01.252Z,15.18
2023-03-19T22:30:35.644Z,15.82
2023-03-19T22:33:13.508Z,15.82
2023-03-19T22:35:42.010Z,15.68
2023-03-19T22:38:10.089Z,15.27
2023-03-19T22:40:39.300Z,14.82
2023-03-19T22:43:18.362Z,15.23
2023-03-19T22:45:46.532Z,14.20
2023-03-19T22:48:18.100Z,13.40
2023-03-19T22:50:46.125Z,11.00
2023-03-19T22:53:22.161Z,10.55
2023-03-19T22:55:50.539Z,10.88
2023-03-19T22:58:18.762Z,9.27
2023-03-19T23:00:47.435Z,12.20
2023-03-19T23:03:21.388Z,11.38
2023-03-19T23:05:52.510Z,12.40
2023-03-19T23:08:20.658Z,13.07
2023-03-19T23:10:48.918Z,13.23
2023-03-19T23:13:16.955Z,15.27
2023-03-19T23:15:45.535Z,16.05
2023-03-19T23:18:20.220Z,14.30
2023-03-19T23:20:48.397Z,15.95
2023-03-19T23:23:18.074Z,14.65
2023-03-19T23:25:47.504Z,15.07
2023-03-19T23:28:20.462Z,14.50
2023-03-19T23:30:50.342Z,14.25
2023-03-19T23:33:21.297Z,17.25
2023-03-19T23:35:49.574Z,15.48
2023-03-19T23:38:18.384Z,15.20
2023-03-19T23:40:46.904Z,15.38
2023-03-19T23:43:19.824Z,14.48
2023-03-19T23:45:50.022Z,15.13
2023-03-19T23:48:21.880Z,14.20
2023-03-19T23:50:49.923Z,13.05
2023-03-19T23:53:20.363Z,13.82
2023-03-19T23:55:50.894Z,15.15
2023-03-19T23:58:19.931Z,14.88
